createdAt,value
2019-05-16T00:01:19.352Z,77.41
2019-05-16T00:03:49.158Z,77.33
2019-05-16T00:06:18.628Z,77.32
2019-05-16T00:08:48.363Z,77.38
2019-05-16T00:11:18.103Z,77.39
2019-05-16T00:13:48.838Z,77.34
2019-05-16T00:16:18.991Z,77.36
2019-05-16T00:18:48.504Z,77.00
2019-05-16T00:21:18.649Z,76.62
2019-05-16T00:23:48.684Z,76.73
2019-05-16T00:26:19.768Z,76.78
2019-05-16T00:28:49.534Z,76.78
2019-05-16T00:31:18.869Z,77.10
2019-05-16T00:33:49.073Z,77.02
2019-05-16T00:36:20.011Z,77.03
2019-05-16T00:38:49.398Z,77.07
2019-05-16T00:41:18.717Z,76.77
2019-05-16T00:43:48.565Z,77.11
2019-05-16T00:46:20.123Z,76.56
2019-05-16T00:48:55.391Z,76.56
2019-05-16T00:51:24.867Z,76.73
2019-05-16T00:53:54.310Z,76.17
2019-05-16T00:56:23.983Z,76.25
2019-05-16T00:58:54.310Z,76.14
2019-05-16T01:01:23.740Z,76.06
2019-05-16T01:03:53.194Z,75.85
2019-05-16T01:06:23.229Z,75.94
2019-05-16T01:08:52.803Z,74.79
2019-05-16T01:11:22.227Z,74.98
2019-05-16T01:13:51.807Z,75.01
2019-05-16T01:16:21.166Z,74.75
2019-05-16T01:18:53.882Z,74.65
2019-05-16T01:21:23.394Z,74.61
2019-05-16T01:23:52.696Z,74.61
2019-05-16T01:26:22.070Z,74.08
2019-05-16T01:28:51.485Z,72.78
2019-05-16T01:31:20.848Z,72.70
2019-05-16T01:33:50.147Z,72.77
2019-05-16T01:36:33.393Z,72.07
2019-05-16T01:38:50.550Z,72.94
2019-05-16T01:41:19.895Z,74.25
2019-05-16T01:43:49.274Z,74.73
2019-05-16T01:46:18.854Z,75.06
2019-05-16T01:49:00.438Z,75.22
2019-05-16T01:51:29.824Z,75.18
2019-05-16T01:53:59.185Z,75.03
2019-05-16T01:56:28.632Z,74.89
2019-05-16T01:58:58.361Z,75.19
2019-05-16T02:01:28.846Z,75.33
2019-05-16T02:03:58.789Z,75.47
2019-05-16T02:06:28.825Z,75.43
2019-05-16T02:08:58.370Z,75.63
2019-05-16T02:11:28.491Z,75.41
2019-05-16T02:13:58.560Z,75.72
2019-05-16T02:16:28.207Z,75.48
2019-05-16T02:19:03.655Z,74.95
2019-05-16T02:21:32.954Z,74.50
2019-05-16T02:24:03.274Z,74.27
2019-05-16T02:26:32.612Z,74.08
2019-05-16T02:29:01.919Z,73.53
2019-05-16T02:31:31.508Z,73.83
2019-05-16T02:34:04.527Z,73.64
2019-05-16T02:36:32.002Z,73.49
2019-05-16T02:39:02.138Z,73.75
2019-05-16T02:41:32.006Z,73.70
2019-05-16T02:44:01.463Z,73.57
2019-05-16T02:46:31.091Z,73.40
2019-05-16T02:49:00.963Z,73.30
2019-05-16T02:51:31.458Z,73.30
2019-05-16T02:54:01.535Z,73.44
2019-05-16T02:56:31.758Z,73.56
2019-05-16T02:59:01.800Z,73.33
2019-05-16T03:01:31.801Z,72.93
2019-05-16T03:04:04.410Z,72.91
2019-05-16T03:06:34.803Z,72.41
2019-05-16T03:09:06.545Z,72.50
2019-05-16T03:11:36.636Z,72.45
2019-05-16T03:14:06.184Z,72.49
2019-05-16T03:16:41.531Z,72.65
2019-05-16T03:19:11.417Z,72.80
2019-05-16T03:21:43.298Z,72.85
2019-05-16T03:24:12.815Z,72.92
2019-05-16T03:26:42.220Z,72.62
2019-05-16T03:29:11.596Z,72.94
2019-05-16T03:31:44.476Z,72.85
2019-05-16T03:34:16.189Z,72.88
2019-05-16T03:36:44.389Z,73.12
2019-05-16T03:39:14.029Z,73.16
2019-05-16T03:41:43.354Z,73.32
2019-05-16T03:44:12.722Z,73.27
2019-05-16T03:46:42.105Z,73.04
2019-05-16T03:49:11.581Z,73.16
2019-05-16T03:51:41.604Z,73.37
2019-05-16T03:54:12.491Z,72.95
2019-05-16T03:56:42.084Z,72.49
2019-05-16T03:59:11.342Z,72.92
2019-05-16T04:01:41.184Z,72.73
2019-05-16T04:04:12.022Z,72.64
2019-05-16T04:06:41.954Z,72.61
2019-05-16T04:09:12.448Z,72.29
2019-05-16T04:11:42.884Z,72.11
2019-05-16T04:14:12.540Z,72.16
2019-05-16T04:16:41.944Z,71.77
2019-05-16T04:19:14.037Z,71.19
2019-05-16T04:21:43.374Z,73.17
2019-05-16T04:24:12.796Z,73.73
2019-05-16T04:26:42.151Z,73.94
2019-05-16T04:29:12.142Z,73.73
2019-05-16T04:31:41.895Z,73.19
2019-05-16T04:34:11.946Z,72.85
2019-05-16T04:36:41.662Z,73.08
2019-05-16T04:39:11.822Z,72.59
2019-05-16T04:41:41.713Z,72.75
2019-05-16T04:44:11.886Z,72.21
2019-05-16T04:46:41.572Z,71.98
2019-05-16T04:49:11.483Z,71.55
2019-05-16T04:51:41.633Z,70.95
2019-05-16T04:54:11.730Z,70.70
2019-05-16T04:56:41.597Z,70.50
2019-05-16T04:59:16.340Z,69.94
2019-05-16T05:01:42.155Z,69.66
2019-05-16T05:04:21.133Z,69.27
2019-05-16T05:06:51.287Z,69.42
2019-05-16T05:09:21.167Z,69.63
2019-05-16T05:11:52.004Z,69.50
2019-05-16T05:14:21.639Z,69.41
2019-05-16T05:16:50.982Z,69.16
2019-05-16T05:19:20.453Z,68.88
2019-05-16T05:21:51.420Z,68.06
2019-05-16T05:24:20.671Z,67.82
2019-05-16T05:26:50.397Z,66.97
2019-05-16T05:29:20.155Z,67.26
2019-05-16T05:31:55.146Z,66.47
2019-05-16T05:34:20.995Z,65.68
2019-05-16T05:36:51.157Z,65.95
2019-05-16T05:39:20.993Z,65.45
2019-05-16T05:41:50.913Z,65.29
2019-05-16T05:44:20.510Z,63.91
2019-05-16T05:46:51.172Z,64.36
2019-05-16T05:49:20.889Z,63.83
2019-05-16T05:51:50.234Z,63.64
2019-05-16T05:54:20.434Z,62.76
2019-05-16T05:56:52.449Z,62.15
2019-05-16T05:59:21.700Z,62.43
2019-05-16T06:01:51.797Z,62.50
2019-05-16T06:04:21.505Z,62.52
2019-05-16T06:06:50.794Z,62.68
2019-05-16T06:09:28.524Z,61.57
2019-05-16T06:11:51.260Z,61.92
2019-05-16T06:14:21.213Z,61.83
2019-05-16T06:16:51.023Z,61.40
2019-05-16T06:19:24.200Z,60.95
2019-05-16T06:21:53.513Z,60.55
2019-05-16T06:24:22.866Z,60.82
2019-05-16T06:26:52.967Z,61.02
2019-05-16T06:29:22.403Z,60.89
2019-05-16T06:31:51.754Z,60.37
2019-05-16T06:34:21.162Z,60.03
2019-05-16T06:36:51.004Z,59.18
2019-05-16T06:39:20.577Z,58.94
2019-05-16T06:41:50.884Z,58.96
2019-05-16T06:44:20.781Z,57.65
2019-05-16T06:46:59.953Z,56.91
2019-05-16T06:49:24.085Z,57.47
2019-05-16T06:51:53.332Z,58.03
2019-05-16T06:54:22.645Z,58.12
2019-05-16T06:56:52.916Z,58.44
2019-05-16T06:59:22.276Z,58.31
2019-05-16T07:01:52.481Z,57.95
2019-05-16T07:04:21.832Z,56.70
2019-05-16T07:06:58.617Z,55.93
2019-05-16T07:09:22.319Z,54.70
2019-05-16T07:11:51.683Z,54.10
2019-05-16T07:14:22.778Z,53.71
2019-05-16T07:16:52.321Z,54.90
2019-05-16T07:19:21.623Z,55.12
2019-05-16T07:21:50.999Z,55.59
2019-05-16T07:24:20.381Z,55.87
2019-05-16T07:26:50.249Z,54.97
2019-05-16T07:29:20.626Z,55.60
2019-05-16T07:31:52.337Z,56.08
2019-05-16T07:34:31.200Z,56.51
2019-05-16T07:37:00.615Z,55.23
2019-05-16T07:39:30.660Z,55.90
2019-05-16T07:42:00.401Z,56.62
2019-05-16T07:44:31.033Z,57.15
2019-05-16T07:47:01.226Z,57.90
2019-05-16T07:49:30.718Z,57.56
2019-05-16T07:52:00.627Z,57.72
2019-05-16T07:54:34.453Z,57.30
2019-05-16T07:57:12.299Z,56.63
2019-05-16T07:59:34.009Z,55.63
2019-05-16T08:02:03.338Z,56.77
2019-05-16T08:04:34.105Z,57.01
2019-05-16T08:07:05.775Z,56.63
2019-05-16T08:09:34.509Z,55.91
2019-05-16T08:12:05.931Z,56.75
2019-05-16T08:14:35.322Z,58.18
2019-05-16T08:17:05.074Z,57.48
2019-05-16T08:19:34.370Z,56.37
2019-05-16T08:22:03.746Z,55.81
2019-05-16T08:24:36.120Z,55.70
2019-05-16T08:27:04.141Z,56.50
2019-05-16T08:29:33.443Z,57.03
2019-05-16T08:32:02.878Z,57.42
2019-05-16T08:34:32.465Z,57.93
2019-05-16T08:37:01.744Z,57.69
2019-05-16T08:39:31.362Z,57.39
2019-05-16T08:42:08.040Z,57.57
2019-05-16T08:44:32.637Z,57.43
2019-05-16T08:47:06.146Z,57.63
2019-05-16T08:49:34.805Z,56.89
2019-05-16T08:52:04.191Z,57.32
2019-05-16T08:54:33.639Z,57.75
2019-05-16T08:57:24.397Z,57.88
2019-05-16T08:59:34.317Z,57.71
2019-05-16T09:02:03.752Z,57.84
2019-05-16T09:04:34.209Z,57.89
2019-05-16T09:07:04.387Z,57.99
2019-05-16T09:09:42.333Z,57.75
2019-05-16T09:15:57.249Z,57.37
2019-05-16T09:18:28.984Z,57.82
2019-05-16T09:20:58.146Z,57.25
2019-05-16T09:23:27.857Z,57.39
2019-05-16T09:40:00.937Z,53.70
2019-05-16T09:42:30.628Z,53.90
2019-05-16T09:45:00.030Z,54.08
2019-05-16T09:47:29.533Z,53.32
2019-05-16T09:49:59.081Z,53.25
2019-05-16T09:52:28.567Z,52.96
2019-05-16T09:54:58.002Z,52.75
2019-05-16T09:57:27.929Z,52.79
2019-05-16T09:59:57.530Z,52.27
2019-05-16T10:02:27.567Z,52.53
2019-05-16T10:04:58.004Z,53.06
2019-05-16T10:07:28.475Z,53.69
2019-05-16T10:09:58.161Z,53.71
2019-05-16T10:12:27.527Z,53.82
2019-05-16T10:14:59.796Z,54.24
2019-05-16T10:17:29.673Z,54.74
2019-05-16T10:20:02.371Z,54.84
2019-05-16T10:22:32.104Z,54.39
2019-05-16T10:25:01.581Z,54.25
2019-05-16T10:27:30.887Z,54.52
2019-05-16T10:30:01.017Z,54.09
2019-05-16T10:32:31.007Z,53.96
2019-05-16T10:35:00.306Z,53.79
2019-05-16T10:37:29.684Z,54.38
2019-05-16T10:40:00.010Z,54.65
2019-05-16T10:42:29.661Z,54.36
2019-05-16T10:44:58.959Z,53.79
2019-05-16T10:47:31.110Z,54.40
2019-05-16T10:49:59.384Z,54.63
2019-05-16T10:52:28.773Z,53.92
2019-05-16T10:55:02.141Z,54.50
2019-05-16T10:57:30.014Z,54.40
2019-05-16T11:00:09.670Z,54.69
2019-05-16T11:02:30.817Z,54.23
2019-05-16T11:05:20.539Z,54.97
2019-05-16T11:07:32.276Z,54.64
2019-05-16T11:10:03.529Z,54.50
2019-05-16T11:12:46.064Z,53.92
2019-05-16T11:15:10.782Z,54.14
2019-05-16T11:17:37.254Z,54.78
2019-05-16T11:20:07.984Z,55.75
2019-05-16T11:22:37.381Z,56.40
2019-05-16T11:25:20.746Z,56.50
2019-05-16T11:27:38.662Z,56.73
2019-05-16T11:30:09.304Z,57.14
2019-05-16T11:32:38.884Z,56.89
2019-05-16T11:35:09.160Z,57.13
2019-05-16T11:37:38.563Z,57.45
2019-05-16T11:40:09.152Z,57.74
2019-05-16T11:42:38.726Z,58.02
2019-05-16T11:45:10.566Z,58.10
2019-05-16T11:47:40.192Z,57.76
2019-05-16T11:50:10.099Z,57.05
2019-05-16T11:52:40.898Z,57.60
2019-05-16T11:55:10.806Z,57.68
2019-05-16T11:57:40.183Z,57.08
2019-05-16T12:00:11.936Z,56.47
2019-05-16T12:02:42.836Z,56.95
2019-05-16T12:05:12.724Z,56.42
2019-05-16T12:07:44.319Z,55.96
2019-05-16T12:10:16.290Z,56.65
2019-05-16T12:12:45.149Z,57.46
2019-05-16T12:15:17.494Z,57.19
2019-05-16T12:17:59.081Z,57.41
2019-05-16T12:20:16.928Z,57.64
2019-05-16T12:22:46.252Z,57.12
2019-05-16T12:25:16.831Z,57.22
2019-05-16T12:27:48.119Z,58.04
2019-05-16T12:30:18.293Z,57.22
2019-05-16T12:32:47.635Z,57.49
2019-05-16T12:35:17.747Z,57.46
2019-05-16T12:37:48.172Z,57.53
2019-05-16T12:40:18.219Z,57.58
2019-05-16T12:42:47.624Z,57.80
2019-05-16T12:45:18.013Z,58.01
2019-05-16T12:47:47.472Z,58.19
2019-05-16T12:50:17.969Z,58.15
2019-05-16T12:52:47.644Z,58.08
2019-05-16T12:55:18.023Z,58.56
2019-05-16T12:57:49.048Z,58.75
2019-05-16T13:00:19.512Z,59.20
2019-05-16T13:02:49.062Z,59.76
2019-05-16T13:05:20.150Z,60.27
2019-05-16T13:07:49.465Z,60.34
2019-05-16T13:10:19.380Z,60.09
2019-05-16T13:12:48.779Z,60.46
2019-05-16T13:15:18.469Z,60.27
2019-05-16T13:17:47.809Z,60.14
2019-05-16T13:20:17.884Z,60.11
2019-05-16T13:22:47.509Z,60.10
2019-05-16T13:25:18.460Z,59.50
2019-05-16T13:27:47.943Z,59.52
2019-05-16T13:30:18.860Z,60.04
2019-05-16T13:32:48.229Z,60.23
2019-05-16T13:35:17.630Z,59.49
2019-05-16T13:37:47.656Z,59.20
2019-05-16T13:40:19.032Z,59.79
2019-05-16T13:42:48.572Z,59.60
2019-05-16T13:45:18.129Z,60.48
2019-05-16T13:47:48.789Z,60.38
2019-05-16T13:50:19.395Z,60.36
2019-05-16T13:52:48.687Z,61.12
2019-05-16T13:55:18.557Z,61.14
2019-05-16T13:57:47.986Z,60.87
2019-05-16T14:00:17.902Z,61.63
2019-05-16T14:02:47.188Z,61.40
2019-05-16T14:05:17.902Z,61.43
2019-05-16T14:07:48.187Z,61.92
2019-05-16T14:10:18.545Z,61.45
2019-05-16T14:12:50.282Z,61.15
2019-05-16T14:15:19.395Z,61.01
2019-05-16T14:17:49.179Z,61.50
2019-05-16T14:20:19.062Z,60.92
2019-05-16T14:22:48.380Z,60.34
2019-05-16T14:25:17.739Z,59.80
2019-05-16T14:27:47.619Z,59.75
2019-05-16T14:30:17.922Z,59.38
2019-05-16T14:32:50.714Z,59.20
2019-05-16T14:35:18.633Z,58.87
2019-05-16T14:37:47.952Z,58.56
2019-05-16T14:40:17.969Z,58.67
2019-05-16T14:42:48.098Z,58.35
2019-05-16T14:45:19.002Z,58.23
2019-05-16T14:47:49.688Z,57.76
2019-05-16T14:50:19.647Z,57.59
2019-05-16T14:52:49.024Z,57.58
2019-05-16T14:55:18.954Z,57.90
2019-05-16T14:57:48.344Z,57.89
2019-05-16T15:00:18.955Z,57.77
2019-05-16T15:02:48.525Z,57.87
2019-05-16T15:05:19.479Z,57.83
2019-05-16T15:07:48.814Z,58.42
2019-05-16T15:10:18.685Z,58.85
2019-05-16T15:12:48.105Z,59.43
2019-05-16T15:15:24.269Z,59.24
2019-05-16T15:17:52.767Z,59.67
2019-05-16T15:20:23.143Z,59.61
2019-05-16T15:22:52.550Z,59.26
2019-05-16T15:25:21.848Z,59.54
2019-05-16T15:27:51.467Z,59.59
2019-05-16T15:30:22.555Z,60.14
2019-05-16T15:32:51.939Z,60.22
2019-05-16T15:35:23.160Z,60.59
2019-05-16T15:37:52.548Z,60.82
2019-05-16T15:40:22.296Z,60.65
2019-05-16T15:42:51.799Z,60.79
2019-05-16T15:45:35.826Z,61.13
2019-05-16T15:47:59.620Z,61.49
2019-05-16T15:50:28.164Z,61.93
2019-05-16T15:52:59.243Z,61.95
2019-05-16T15:55:29.305Z,62.06
2019-05-16T15:58:19.534Z,62.11
2019-05-16T16:00:49.645Z,62.57
2019-05-16T16:03:19.542Z,62.18
2019-05-16T16:05:49.500Z,62.33
2019-05-16T16:08:18.892Z,62.50
2019-05-16T16:10:48.319Z,62.57
2019-05-16T16:13:19.836Z,62.50
2019-05-16T16:15:54.052Z,62.47
2019-05-16T16:18:21.892Z,62.63
2019-05-16T16:20:51.675Z,62.21
2019-05-16T16:23:21.120Z,62.37
2019-05-16T16:25:51.631Z,62.51
2019-05-16T16:28:21.442Z,62.99
2019-05-16T16:30:50.810Z,63.04
2019-05-16T16:33:25.805Z,62.98
2019-05-16T16:35:51.274Z,63.26
2019-05-16T16:38:20.611Z,62.99
2019-05-16T16:40:50.027Z,62.72
2019-05-16T16:43:19.424Z,62.97
2019-05-16T16:45:49.507Z,63.16
2019-05-16T16:48:18.847Z,63.11
2019-05-16T16:51:03.320Z,63.65
2019-05-16T16:53:32.731Z,63.35
2019-05-16T16:56:02.140Z,63.40
2019-05-16T16:58:31.540Z,63.53
2019-05-16T17:01:01.671Z,63.93
2019-05-16T17:03:31.102Z,64.40
2019-05-16T17:06:00.376Z,64.61
2019-05-16T17:08:29.753Z,64.92
2019-05-16T17:10:59.157Z,65.33
2019-05-16T17:13:28.666Z,64.90
2019-05-16T17:15:58.041Z,64.97
2019-05-16T17:18:27.723Z,65.29
2019-05-16T17:20:57.419Z,65.79
2019-05-16T17:23:26.729Z,66.02
2019-05-16T17:25:56.629Z,66.71
2019-05-16T17:28:26.509Z,66.40
2019-05-16T17:30:56.759Z,66.86
2019-05-16T17:33:28.496Z,67.60
2019-05-16T17:35:57.282Z,67.47
2019-05-16T17:38:26.847Z,68.29
2019-05-16T17:40:56.936Z,68.35
2019-05-16T17:43:26.989Z,68.52
2019-05-16T17:45:57.560Z,68.24
2019-05-16T17:48:29.719Z,68.75
2019-05-16T17:50:58.314Z,68.31
2019-05-16T17:53:27.675Z,68.42
2019-05-16T17:55:57.433Z,68.75
2019-05-16T17:58:27.146Z,69.18
2019-05-16T18:01:00.053Z,69.27
2019-05-16T18:03:27.682Z,69.88
2019-05-16T18:05:56.944Z,69.73
2019-05-16T18:08:26.313Z,69.98
2019-05-16T18:10:56.499Z,70.12
2019-05-16T18:13:26.181Z,70.41
2019-05-16T18:15:56.776Z,69.71
2019-05-16T18:18:26.963Z,69.96
2019-05-16T18:21:01.588Z,70.35
2019-05-16T18:23:27.613Z,70.05
2019-05-16T18:25:57.676Z,70.32
2019-05-16T18:28:27.229Z,70.77
2019-05-16T18:30:56.889Z,70.99
2019-05-16T18:33:27.558Z,71.26
2019-05-16T18:35:57.990Z,71.45
2019-05-16T18:38:28.732Z,71.65
2019-05-16T18:40:58.248Z,71.59
2019-05-16T18:43:27.758Z,71.07
2019-05-16T18:45:57.133Z,71.31
2019-05-16T18:48:27.757Z,71.67
2019-05-16T18:50:57.915Z,71.69
2019-05-16T18:53:27.796Z,71.65
2019-05-16T18:55:57.532Z,71.95
2019-05-16T18:58:27.128Z,72.72
2019-05-16T19:00:56.560Z,72.98
2019-05-16T19:03:27.088Z,72.68
2019-05-16T19:05:57.340Z,73.89
2019-05-16T19:08:27.199Z,75.17
2019-05-16T19:10:59.812Z,75.26
2019-05-16T19:13:27.968Z,75.94
2019-05-16T19:15:57.427Z,76.40
2019-05-16T19:18:26.852Z,76.46
2019-05-16T19:20:57.071Z,76.83
2019-05-16T19:23:27.067Z,76.86
2019-05-16T19:25:58.410Z,77.53
2019-05-16T19:28:28.612Z,76.84
2019-05-16T19:30:58.791Z,77.26
2019-05-16T19:33:28.235Z,76.81
2019-05-16T19:35:57.636Z,77.45
2019-05-16T19:38:29.298Z,77.62
2019-05-16T19:40:59.823Z,78.29
2019-05-16T19:43:29.279Z,78.88
2019-05-16T19:45:59.058Z,78.78
2019-05-16T19:48:28.707Z,79.25
2019-05-16T19:50:58.840Z,78.89
2019-05-16T19:53:28.345Z,79.32
2019-05-16T19:55:57.755Z,79.27
2019-05-16T19:58:27.226Z,79.45
2019-05-16T20:00:57.358Z,79.41
2019-05-16T20:03:27.422Z,79.19
2019-05-16T20:05:57.100Z,80.17
2019-05-16T20:08:27.052Z,80.09
2019-05-16T20:10:56.740Z,80.15
2019-05-16T20:13:27.385Z,80.47
2019-05-16T20:15:57.240Z,80.14
2019-05-16T20:18:27.330Z,80.21
2019-05-16T20:20:57.087Z,79.71
2019-05-16T20:23:27.567Z,79.78
2019-05-16T20:25:57.493Z,79.77
2019-05-16T20:28:26.903Z,80.85
2019-05-16T20:30:57.059Z,80.98
2019-05-16T20:33:27.686Z,81.46
2019-05-16T20:35:57.637Z,81.28
2019-05-16T20:38:27.388Z,81.65
2019-05-16T20:40:59.929Z,81.55
2019-05-16T20:43:29.155Z,81.50
2019-05-16T20:46:00.462Z,81.71
2019-05-16T20:48:30.012Z,81.92
2019-05-16T20:50:59.391Z,81.53
2019-05-16T20:53:28.704Z,81.82
2019-05-16T20:55:59.667Z,82.36
2019-05-16T20:58:29.194Z,81.97
2019-05-16T21:01:01.495Z,81.87
2019-05-16T21:03:29.830Z,82.21
2019-05-16T21:05:59.345Z,82.67
2019-05-16T21:08:28.821Z,82.45
2019-05-16T21:10:58.439Z,82.55
2019-05-16T21:13:28.392Z,82.96
2019-05-16T21:15:57.891Z,82.80
2019-05-16T21:18:27.214Z,83.33
2019-05-16T21:20:57.434Z,83.28
2019-05-16T21:23:27.502Z,83.41
2019-05-16T21:25:57.299Z,83.41
2019-05-16T21:28:26.777Z,83.52
2019-05-16T21:30:56.854Z,83.22
2019-05-16T21:33:27.269Z,83.61
2019-05-16T21:35:56.868Z,83.34
2019-05-16T21:38:27.076Z,83.52
2019-05-16T21:40:58.388Z,82.49
2019-05-16T21:43:27.981Z,83.07
2019-05-16T21:45:57.468Z,83.24
2019-05-16T21:48:27.663Z,82.39
2019-05-16T21:50:57.465Z,82.90
2019-05-16T21:53:29.950Z,82.25
2019-05-16T21:55:58.181Z,81.91
2019-05-16T21:58:29.474Z,82.04
2019-05-16T22:01:00.053Z,82.89
2019-05-16T22:03:29.444Z,82.90
2019-05-16T22:05:59.134Z,83.12
2019-05-16T22:08:28.508Z,83.07
2019-05-16T22:10:57.921Z,82.66
2019-05-16T22:13:27.298Z,83.03
2019-05-16T22:15:57.065Z,82.76
2019-05-16T22:18:26.564Z,82.82
2019-05-16T22:21:03.467Z,83.22
2019-05-16T22:23:32.920Z,83.10
2019-05-16T22:26:02.384Z,83.07
2019-05-16T22:28:31.863Z,83.21
2019-05-16T22:31:01.335Z,83.48
2019-05-16T22:33:30.784Z,83.23
2019-05-16T22:36:03.158Z,82.85
2019-05-16T22:38:32.583Z,82.01
2019-05-16T22:41:02.072Z,81.66
2019-05-16T22:43:31.463Z,81.56
2019-05-16T22:46:01.015Z,81.52
2019-05-16T22:48:30.518Z,81.31
2019-05-16T22:50:59.920Z,81.48
2019-05-16T22:53:29.304Z,81.69
2019-05-16T22:55:58.871Z,81.57
2019-05-16T22:58:28.218Z,81.68
2019-05-16T23:00:57.969Z,81.57
2019-05-16T23:03:27.465Z,81.57
2019-05-16T23:05:56.850Z,81.92
2019-05-16T23:08:27.222Z,81.65
2019-05-16T23:10:56.979Z,81.68
2019-05-16T23:13:26.782Z,81.49
2019-05-16T23:15:57.177Z,81.44
2019-05-16T23:18:26.842Z,81.42
2019-05-16T23:20:56.945Z,81.44
2019-05-16T23:23:26.715Z,82.03
2019-05-16T23:25:56.931Z,82.27
2019-05-16T23:28:27.304Z,81.93
2019-05-16T23:30:57.780Z,81.42
2019-05-16T23:33:27.293Z,81.01
2019-05-16T23:36:08.890Z,81.07
2019-05-16T23:38:38.182Z,81.30
2019-05-16T23:41:07.775Z,81.63
2019-05-16T23:43:37.525Z,81.77
2019-05-16T23:46:07.220Z,81.66
2019-05-16T23:48:36.742Z,81.81
2019-05-16T23:51:07.885Z,81.95
2019-05-16T23:53:37.394Z,81.96
2019-05-16T23:56:07.541Z,81.38
2019-05-16T23:58:37.259Z,81.86
